Time;durP1;ratioP1;P1;durP2;ratioP2;P2;SDS_P1;SDS_P2;PMS_P1;PMS_P2;Temp;Humidity;BMP_temperature;BMP_pressure;BME280_temperature;BME280_humidity;BME280_pressure;Samples;Min_cycle;Max_cycle;Signal;HPM_P1;HPM_P2
2020/12/16 00:01:58;;;;;;;30.40;16.40;;;;;;;5.77;100.00;100851.88;5043411;28;20049;-70
2020/12/16 00:04:24;;;;;;;29.43;16.83;;;;;;;5.78;100.00;100855.38;5043977;28;20123;-70
2020/12/16 00:06:50;;;;;;;27.97;15.40;;;;;;;5.77;100.00;100851.00;5041735;28;20037;-70
2020/12/16 00:09:17;;;;;;;29.53;16.70;;;;;;;5.76;100.00;100854.50;5020182;28;20183;-70
2020/12/16 00:11:43;;;;;;;28.90;15.53;;;;;;;5.74;100.00;100862.38;5042756;28;20523;-70
2020/12/16 00:14:09;;;;;;;35.07;18.57;;;;;;;5.78;100.00;100863.22;5028278;28;20118;-70
2020/12/16 00:16:35;;;;;;;33.17;18.03;;;;;;;5.78;100.00;100863.22;5029827;28;20034;-70
2020/12/16 00:19:01;;;;;;;33.63;18.17;;;;;;;5.77;100.00;100861.50;5045139;28;20037;-70
2020/12/16 00:21:27;;;;;;;27.47;16.37;;;;;;;5.77;100.00;100866.72;5026535;28;20065;-70
2020/12/16 00:23:53;;;;;;;27.90;16.43;;;;;;;5.77;100.00;100871.97;5027584;28;20038;-70
2020/12/16 00:26:20;;;;;;;32.00;17.07;;;;;;;5.78;100.00;100869.34;5043952;28;20491;-70
2020/12/16 00:28:46;;;;;;;32.03;16.37;;;;;;;5.80;100.00;100878.13;5027766;28;20438;-70
2020/12/16 00:31:13;;;;;;;28.17;15.03;;;;;;;5.81;100.00;100881.63;5043510;28;20092;-70
2020/12/16 00:33:39;;;;;;;30.13;15.80;;;;;;;5.83;100.00;100885.09;5026357;28;20061;-70
2020/12/16 00:36:06;;;;;;;33.13;17.53;;;;;;;5.83;100.00;100883.34;5028141;28;20065;-70
2020/12/16 00:38:33;;;;;;;33.53;16.57;;;;;;;5.84;100.00;100886.84;5042242;28;20052;-70
2020/12/16 00:40:59;;;;;;;28.27;15.93;;;;;;;5.83;100.00;100883.34;5040597;28;20446;-70
2020/12/16 00:43:25;;;;;;;33.73;17.17;;;;;;;5.83;100.00;100893.84;5042890;28;20037;-70
2020/12/16 00:45:51;;;;;;;33.20;17.33;;;;;;;5.83;100.00;100903.47;5027396;28;20045;-70
2020/12/16 00:48:17;;;;;;;32.13;16.60;;;;;;;5.84;100.00;100903.47;5027130;28;20057;-70
2020/12/16 00:50:43;;;;;;;33.57;17.43;;;;;;;5.85;100.00;100913.06;5027316;28;20073;-70
2020/12/16 00:53:09;;;;;;;28.77;15.93;;;;;;;5.85;100.00;100918.31;5042341;28;20530;-70
2020/12/16 00:55:36;;;;;;;31.60;16.37;;;;;;;5.89;100.00;100919.22;5027791;28;20123;-70
2020/12/16 00:58:02;;;;;;;27.87;15.10;;;;;;;5.91;100.00;100926.25;5040291;28;20036;-71
2020/12/16 01:00:28;;;;;;;30.77;16.70;;;;;;;5.91;100.00;100936.72;5040925;28;20087;-70
2020/12/16 01:02:55;;;;;;;31.40;17.07;;;;;;;5.94;100.00;100943.72;5027144;28;20041;-70
2020/12/16 01:05:21;;;;;;;33.63;17.43;;;;;;;5.98;100.00;100942.00;5025703;28;20033;-70
2020/12/16 01:07:48;;;;;;;31.03;15.67;;;;;;;5.97;100.00;100949.00;5042333;28;20159;-70
2020/12/16 01:10:16;;;;;;;28.27;15.67;;;;;;;5.98;100.00;100953.38;5039035;28;20048;-70
2020/12/16 01:12:44;;;;;;;31.83;17.57;;;;;;;5.96;100.00;100949.84;5025685;28;20046;-70
2020/12/16 01:15:12;;;;;;;30.80;16.30;;;;;;;6.00;100.00;100961.22;5026981;28;20111;-70
2020/12/16 01:17:42;;;;;;;29.50;16.63;;;;;;;6.02;100.00;100962.97;5064749;22;20030;-69
2020/12/16 01:20:09;;;;;;;35.93;17.83;;;;;;;6.06;100.00;100959.50;5007066;28;20099;-69
2020/12/16 01:22:46;;;;;;;35.90;18.27;;;;;;;6.06;100.00;100963.88;5008291;28;20263;-69
2020/12/16 01:25:15;;;;;;;29.03;15.83;;;;;;;6.03;100.00;100971.72;5004891;28;20093;-69
2020/12/16 01:27:41;;;;;;;34.43;17.77;;;;;;;6.04;100.00;100965.59;4993698;28;20045;-69
2020/12/16 01:30:08;;;;;;;32.53;17.53;;;;;;;6.06;100.00;100969.13;5026819;28;20064;-69
2020/12/16 01:32:36;;;;;;;34.50;17.73;;;;;;;6.08;100.00;100972.63;4994990;28;20099;-69
2020/12/16 01:35:12;;;;;;;33.43;17.33;;;;;;;6.10;100.00;100976.13;5010612;28;20406;-69
2020/12/16 01:37:38;;;;;;;33.37;17.73;;;;;;;6.11;100.00;100970.00;5005348;28;20045;-69
2020/12/16 01:40:06;;;;;;;37.83;19.23;;;;;;;6.11;100.00;100978.72;4992825;28;20068;-69
2020/12/16 01:42:33;;;;;;;30.50;16.17;;;;;;;6.10;100.00;100984.84;5010805;28;20034;-69
2020/12/16 01:45:03;;;;;;;34.70;17.57;;;;;;;6.09;100.00;100975.25;5019398;28;20033;-69
2020/12/16 01:47:29;;;;;;;29.50;16.47;;;;;;;6.10;100.00;100986.59;5000054;28;20049;-69
2020/12/16 01:49:55;;;;;;;37.40;17.93;;;;;;;6.13;100.00;100976.97;5002087;28;20804;-69
2020/12/16 01:52:23;;;;;;;40.00;20.03;;;;;;;6.12;100.00;100983.09;5021810;28;20046;-69
2020/12/16 01:54:50;;;;;;;35.53;17.60;;;;;;;6.14;100.00;100984.00;5010251;28;20041;-69
2020/12/16 01:57:18;;;;;;;41.63;19.43;;;;;;;6.16;100.00;100990.13;5010216;28;20130;-69
2020/12/16 01:59:46;;;;;;;37.57;18.30;;;;;;;6.17;100.00;100991.88;5026400;28;20041;-69
2020/12/16 02:02:14;;;;;;;42.17;19.37;;;;;;;6.15;100.00;100992.75;5007218;28;20074;-69
2020/12/16 02:04:45;;;;;;;33.67;17.30;;;;;;;6.12;100.00;101003.22;5009941;28;20053;-69
2020/12/16 02:07:13;;;;;;;40.30;20.17;;;;;;;6.11;100.00;101014.59;5025093;28;20515;-69
2020/12/16 02:09:47;;;;;;;39.60;18.17;;;;;;;6.15;100.00;101017.25;5002045;28;20099;-69
2020/12/16 02:12:18;;;;;;;41.53;20.48;;;;;;;6.21;100.00;101013.75;5009473;28;20052;-69
2020/12/16 02:14:45;;;;;;;49.13;21.03;;;;;;;6.23;100.00;101024.25;5008468;28;20127;-69
2020/12/16 02:17:11;;;;;;;50.07;20.00;;;;;;;6.29;100.00;101024.25;4994827;28;20441;-69
2020/12/16 02:19:43;;;;;;;41.93;20.90;;;;;;;6.27;100.00;101036.50;4994105;28;20037;-69
2020/12/16 02:22:10;;;;;;;43.17;19.47;;;;;;;6.27;100.00;101042.63;4998429;28;20038;-69
2020/12/16 02:24:40;;;;;;;37.40;18.33;;;;;;;6.24;100.00;101042.63;4994045;28;20041;-69
2020/12/16 02:27:07;;;;;;;36.37;17.70;;;;;;;6.24;100.00;101053.13;5010631;28;20053;-69
2020/12/16 02:29:33;;;;;;;41.83;19.00;;;;;;;6.27;100.00;101052.25;5011355;28;20069;-69
2020/12/16 02:31:59;;;;;;;44.60;20.60;;;;;;;6.28;100.00;101047.00;5028882;28;20099;-69
2020/12/16 02:34:25;;;;;;;42.97;20.67;;;;;;;6.32;100.00;101048.78;5028091;28;20060;-69
2020/12/16 02:36:51;;;;;;;50.53;21.43;;;;;;;6.35;100.00;101056.66;5028459;28;20032;-69
2020/12/16 02:39:18;;;;;;;44.83;19.97;;;;;;;6.37;100.00;101056.66;5028161;28;20041;-69
2020/12/16 02:41:44;;;;;;;53.93;23.17;;;;;;;6.43;100.00;101060.16;5028884;28;20449;-69
2020/12/16 02:44:12;;;;;;;49.33;23.20;;;;;;;6.44;100.00;101058.41;5027061;28;21500;-69
2020/12/16 02:46:38;;;;;;;44.97;21.90;;;;;;;6.43;100.00;101057.53;5028098;28;20030;-69
2020/12/16 02:49:04;;;;;;;47.67;21.47;;;;;;;6.44;100.00;101066.28;5010087;28;20434;-69
2020/12/16 02:51:31;;;;;;;52.00;23.87;;;;;;;6.41;100.00;101061.91;5010216;28;20041;-69
2020/12/16 02:54:00;;;;;;;45.97;22.23;;;;;;;6.45;100.00;101068.03;5010282;28;20053;-69
2020/12/16 02:56:26;;;;;;;55.13;22.73;;;;;;;6.45;100.00;101070.66;5011530;28;20048;-69
2020/12/16 02:58:52;;;;;;;44.17;20.23;;;;;;;6.45;100.00;101068.91;5010196;28;20038;-69
2020/12/16 03:01:18;;;;;;;50.40;21.50;;;;;;;6.45;100.00;101078.53;5026116;28;20096;-69
2020/12/16 03:03:45;;;;;;;45.53;20.67;;;;;;;6.44;100.00;101069.78;5007931;28;20080;-69
2020/12/16 03:06:15;;;;;;;47.90;22.07;;;;;;;6.45;100.00;101071.53;5000338;28;20503;-69
2020/12/16 03:08:42;;;;;;;49.73;22.43;;;;;;;6.44;100.00;101082.03;5028361;28;20042;-69
2020/12/16 03:11:15;;;;;;;51.13;22.03;;;;;;;6.42;100.00;101079.41;5029246;28;20038;-69
2020/12/16 03:13:41;;;;;;;38.03;18.37;;;;;;;6.41;100.00;101077.66;5026055;28;20095;-69
2020/12/16 03:16:07;;;;;;;43.90;21.17;;;;;;;6.42;100.00;101076.78;5029063;28;20041;-69
2020/12/16 03:18:34;;;;;;;44.97;19.70;;;;;;;6.43;100.00;101085.53;5021333;28;20730;-69
2020/12/16 03:21:00;;;;;;;49.30;21.37;;;;;;;6.44;100.00;101090.78;5009144;28;20040;-69
2020/12/16 03:23:27;;;;;;;44.67;20.37;;;;;;;6.45;100.00;101083.78;4983716;28;20046;-69
2020/12/16 03:25:53;;;;;;;44.67;19.53;;;;;;;6.47;100.00;101082.03;5028228;28;20540;-69
2020/12/16 03:28:19;;;;;;;40.13;19.13;;;;;;;6.45;100.00;101089.03;5010906;28;20098;-69
2020/12/16 03:30:45;;;;;;;58.30;25.40;;;;;;;6.46;100.00;101086.41;5027809;28;20045;-69
2020/12/16 03:33:11;;;;;;;46.00;21.77;;;;;;;6.47;100.00;101085.56;5006649;28;20092;-70
2020/12/16 03:35:37;;;;;;;40.37;18.13;;;;;;;6.48;100.00;101086.44;4999800;28;20085;-70
2020/12/16 03:38:03;;;;;;;40.47;18.43;;;;;;;6.47;100.00;101082.03;5007526;28;20625;-69
2020/12/16 03:40:29;;;;;;;41.80;18.30;;;;;;;6.47;100.00;101089.91;5026077;28;20524;-69
2020/12/16 03:42:56;;;;;;;46.13;19.20;;;;;;;6.45;100.00;101099.53;5026779;28;20046;-69
2020/12/16 03:45:22;;;;;;;58.10;22.97;;;;;;;6.44;100.00;101103.91;5010001;28;20037;-69
2020/12/16 03:47:48;;;;;;;45.47;20.30;;;;;;;6.46;100.00;101111.78;5024778;28;20065;-69
2020/12/16 03:50:17;;;;;;;38.72;18.83;;;;;;;6.44;100.00;101109.16;5009894;28;20403;-69
2020/12/16 03:52:43;;;;;;;44.03;19.37;;;;;;;6.43;100.00;101110.03;5009785;28;20069;-69
2020/12/16 03:55:09;;;;;;;38.80;16.45;;;;;;;6.42;100.00;101110.91;5027202;28;20045;-69
2020/12/16 03:57:35;;;;;;;33.23;16.50;;;;;;;6.42;100.00;101110.03;5026547;28;20095;-69
2020/12/16 04:00:03;;;;;;;45.00;18.10;;;;;;;6.43;100.00;101119.66;5008984;28;20045;-69
2020/12/16 04:02:29;;;;;;;53.90;22.10;;;;;;;6.43;100.00;101122.28;5026370;28;20041;-69
2020/12/16 04:04:55;;;;;;;53.65;22.42;;;;;;;6.45;100.00;101121.41;5010399;28;20077;-69
2020/12/16 04:07:21;;;;;;;49.92;21.00;;;;;;;6.47;100.00;101119.69;5026487;28;20048;-69
2020/12/16 04:09:47;;;;;;;50.27;19.97;;;;;;;6.48;100.00;101123.19;5027131;28;20083;-70
2020/12/16 04:12:14;;;;;;;42.67;21.43;;;;;;;6.46;100.00;101117.03;5027585;28;20034;-69
2020/12/16 04:14:40;;;;;;;43.07;19.90;;;;;;;6.46;100.00;101128.41;5027127;28;20053;-69
2020/12/16 04:17:06;;;;;;;45.43;19.87;;;;;;;6.48;100.00;101131.06;5027517;28;20048;-70
2020/12/16 04:19:33;;;;;;;37.80;16.30;;;;;;;6.48;100.00;101136.31;5023588;28;20065;-70
2020/12/16 04:21:59;;;;;;;44.25;18.33;;;;;;;6.46;100.00;101144.16;5027051;28;20091;-69
2020/12/16 04:24:25;;;;;;;35.83;16.00;;;;;;;6.45;100.00;101144.16;5025224;28;20042;-69
2020/12/16 04:26:53;;;;;;;35.60;14.93;;;;;;;6.43;100.00;101148.53;5025942;28;20037;-69
2020/12/16 04:29:26;;;;;;;38.03;16.77;;;;;;;6.41;100.00;101145.91;5007454;28;20537;-69
2020/12/16 04:31:53;;;;;;;41.90;19.67;;;;;;;6.42;100.00;101142.41;5010201;28;20041;-69
2020/12/16 04:34:19;;;;;;;42.10;18.75;;;;;;;6.42;100.00;101146.78;5028633;28;20049;-69
2020/12/16 04:36:47;;;;;;;47.05;19.08;;;;;;;6.43;100.00;101146.78;5005366;28;20037;-69
2020/12/16 04:39:14;;;;;;;39.53;18.30;;;;;;;6.44;100.00;101153.78;5030867;28;20087;-69
2020/12/16 04:41:40;;;;;;;43.07;18.50;;;;;;;6.45;100.00;101157.28;5021245;28;20047;-69
2020/12/16 04:44:09;;;;;;;37.75;16.70;;;;;;;6.43;100.00;101157.28;5014337;28;20042;-69
2020/12/16 04:46:37;;;;;;;36.93;16.07;;;;;;;6.41;100.00;101152.91;5011899;28;20030;-69
2020/12/16 04:49:04;;;;;;;37.53;17.10;;;;;;;6.40;100.00;101165.16;5011014;28;20669;-69
2020/12/16 04:51:33;;;;;;;40.10;18.00;;;;;;;6.41;100.00;101166.03;5010886;28;20048;-69
2020/12/16 04:53:59;;;;;;;32.43;14.07;;;;;;;6.39;100.00;101175.63;5011049;28;20116;-69
2020/12/16 04:56:27;;;;;;;28.30;15.33;;;;;;;6.38;100.00;101179.13;5023811;28;20565;-70
2020/12/16 04:58:56;;;;;;;30.90;14.40;;;;;;;6.36;100.00;101181.72;5013343;28;20424;-69
2020/12/16 05:01:22;;;;;;;29.38;15.32;;;;;;;6.35;100.00;101177.34;5008463;28;20033;-69
2020/12/16 05:03:48;;;;;;;47.60;21.60;;;;;;;6.43;100.00;101190.53;5030723;28;20040;-69
2020/12/16 05:06:33;;;;;;;44.73;18.47;;;;;;;6.41;100.00;101192.28;5018538;28;20096;-69
2020/12/16 05:09:08;;;;;;;45.83;20.50;;;;;;;6.43;100.00;101182.66;5016797;28;20375;-69
2020/12/16 05:11:38;;;;;;;40.47;17.33;;;;;;;6.43;100.00;101180.91;5013983;28;20095;-69
2020/12/16 05:14:18;;;;;;;46.03;19.75;;;;;;;6.45;100.00;101183.53;5030655;28;20099;-70
2020/12/16 05:16:55;;;;;;;36.10;18.20;;;;;;;6.45;100.00;101183.53;5013604;28;20057;-70
2020/12/16 05:19:33;;;;;;;30.77;14.43;;;;;;;6.43;100.00;101191.41;5006969;28;20037;-69
2020/12/16 05:22:23;;;;;;;36.27;15.80;;;;;;;6.43;100.00;101193.16;5010805;28;20494;-69
2020/12/16 05:24:58;;;;;;;34.83;15.70;;;;;;;6.42;100.00;101197.53;5012016;28;20065;-70
2020/12/16 05:27:32;;;;;;;28.57;13.63;;;;;;;6.41;100.00;101200.16;5012054;28;20061;-70
2020/12/16 05:30:05;;;;;;;32.55;15.35;;;;;;;6.40;100.00;101209.78;5012031;28;21132;-69
2020/12/16 05:32:35;;;;;;;33.72;14.65;;;;;;;6.38;100.00;101208.84;5029950;28;20048;-70
2020/12/16 05:35:21;;;;;;;27.38;13.52;;;;;;;6.39;100.00;101209.72;5030410;28;20037;-69
2020/12/16 05:37:47;;;;;;;32.40;15.60;;;;;;;6.38;100.00;101214.09;5012734;28;20049;-69
2020/12/16 05:40:16;;;;;;;27.60;13.47;;;;;;;6.37;100.00;101227.22;5013291;28;20072;-69
2020/12/16 05:42:49;;;;;;;27.00;14.20;;;;;;;6.35;100.00;101235.09;5030780;28;20576;-70
2020/12/16 05:45:24;;;;;;;29.33;13.70;;;;;;;6.32;100.00;101242.09;4995613;28;20041;-70
2020/12/16 05:48:01;;;;;;;24.80;14.52;;;;;;;6.30;100.00;101236.81;4996664;28;20406;-69
2020/12/16 05:50:50;;;;;;;24.53;11.47;;;;;;;6.29;100.00;101244.66;5029265;28;20037;-69
2020/12/16 05:53:17;;;;;;;30.93;12.90;;;;;;;6.26;100.00;101247.28;5010334;28;20046;-70
2020/12/16 05:56:00;;;;;;;28.60;12.70;;;;;;;6.25;100.00;101248.16;5027716;28;20124;-70
2020/12/16 05:58:28;;;;;;;27.65;12.98;;;;;;;6.24;100.00;101247.28;5029840;28;20095;-70
2020/12/16 06:01:04;;;;;;;25.17;14.13;;;;;;;6.26;100.00;101255.16;5011513;28;20037;-69
2020/12/16 06:03:39;;;;;;;24.93;13.43;;;;;;;6.24;100.00;101255.16;5012217;28;20044;-70
2020/12/16 06:06:09;;;;;;;32.30;14.52;;;;;;;6.24;100.00;101254.28;5022020;28;20486;-69
2020/12/16 06:08:40;;;;;;;28.80;12.70;;;;;;;6.24;100.00;101256.91;5013288;28;20096;-69
2020/12/16 06:11:07;;;;;;;23.23;13.00;;;;;;;6.21;100.00;101263.84;5026538;28;20053;-70
2020/12/16 06:13:34;;;;;;;26.30;12.63;;;;;;;6.22;100.00;101262.09;5011922;28;20049;-69
2020/12/16 06:16:05;;;;;;;27.00;13.40;;;;;;;6.23;100.00;101270.88;5009793;28;20053;-69
2020/12/16 06:18:33;;;;;;;22.43;12.57;;;;;;;6.20;100.00;101280.47;5024548;28;20112;-69
2020/12/16 06:21:00;;;;;;;24.63;11.83;;;;;;;6.20;100.00;101272.59;5010692;28;20045;-69
2020/12/16 06:23:44;;;;;;;24.03;11.73;;;;;;;6.20;100.00;101279.59;5009974;28;20506;-69
2020/12/16 06:26:13;;;;;;;23.70;11.67;;;;;;;6.18;100.00;101282.22;5010596;28;20038;-69
2020/12/16 06:28:41;;;;;;;21.77;10.73;;;;;;;6.17;100.00;101283.09;4991250;28;20506;-69
2020/12/16 06:31:27;;;;;;;21.33;10.97;;;;;;;6.15;100.00;101297.06;5027523;28;20073;-69
2020/12/16 06:34:11;;;;;;;23.47;11.13;;;;;;;6.16;100.00;101285.69;5010522;28;20049;-69
2020/12/16 06:36:42;;;;;;;23.52;12.50;;;;;;;6.17;100.00;101290.97;5009322;28;20776;-70
2020/12/16 06:39:14;;;;;;;;;;;;;;;6.13;100.00;101291.78;4995230;28;20037;-70
2020/12/16 06:41:56;;;;;;;24.17;11.93;;;;;;;6.13;100.00;101296.16;5014965;28;19929;-69
2020/12/16 06:44:23;;;;;;;30.03;12.80;;;;;;;6.13;100.00;101301.41;5009342;28;20037;-69
2020/12/16 06:46:51;;;;;;;27.70;12.50;;;;;;;6.14;100.00;101301.44;5009786;28;20072;-69
2020/12/16 06:49:20;;;;;;;26.57;11.70;;;;;;;6.13;100.00;101311.88;5017754;28;20466;-69
2020/12/16 06:51:47;;;;;;;22.13;12.33;;;;;;;6.08;100.00;101304.00;5016559;28;20033;-69
2020/12/16 06:54:14;;;;;;;22.70;11.70;;;;;;;6.09;100.00;101305.75;5010324;28;20041;-70
2020/12/16 06:56:43;;;;;;;22.53;11.93;;;;;;;6.06;100.00;101311.00;5007790;28;20042;-69
2020/12/16 06:59:15;;;;;;;21.80;11.60;;;;;;;6.06;100.00;101311.00;5003963;28;20053;-69
2020/12/16 07:01:41;;;;;;;22.07;10.57;;;;;;;6.03;100.00;101321.44;5007526;28;20033;-69
2020/12/16 07:04:12;;;;;;;22.47;11.87;;;;;;;6.02;100.00;101324.94;5024230;28;20033;-69
2020/12/16 07:06:42;;;;;;;21.20;10.90;;;;;;;6.03;100.00;101331.06;5002329;28;20052;-69
2020/12/16 07:09:21;;;;;;;18.73;10.23;;;;;;;6.01;100.00;101336.28;5006783;28;20128;-69
2020/12/16 07:11:49;;;;;;;25.70;11.87;;;;;;;6.01;100.00;101338.03;5024077;28;20049;-69
2020/12/16 07:14:17;;;;;;;22.87;11.23;;;;;;;6.01;100.00;101338.91;5030239;28;20049;-69
2020/12/16 07:16:44;;;;;;;24.53;11.10;;;;;;;6.01;100.00;101341.53;5030179;28;20867;-69
2020/12/16 07:19:13;;;;;;;24.57;11.23;;;;;;;6.01;100.00;101341.53;5034636;23;20044;-70
2020/12/16 07:21:40;;;;;;;24.87;11.10;;;;;;;6.01;100.00;101338.91;5041742;28;20087;-69
2020/12/16 07:24:10;;;;;;;22.03;11.67;;;;;;;6.02;100.00;101340.66;5039343;28;20042;-70
2020/12/16 07:26:55;;;;;;;21.73;10.30;;;;;;;6.04;100.00;101343.28;5044466;28;20137;-69
2020/12/16 07:29:31;;;;;;;24.90;11.37;;;;;;;6.03;100.00;101329.31;5015543;28;20073;-70
2020/12/16 07:31:59;;;;;;;20.07;9.93;;;;;;;6.03;100.00;101333.69;5027442;28;20488;-69
2020/12/16 07:34:26;;;;;;;21.87;10.50;;;;;;;6.02;100.00;101332.78;5045296;28;20068;-71
2020/12/16 07:37:00;;;;;;;18.40;9.07;;;;;;;6.01;100.00;101338.91;5045051;28;20033;-71
2020/12/16 07:39:27;;;;;;;18.13;9.60;;;;;;;6.00;100.00;101345.03;5043234;28;20037;-71
2020/12/16 07:41:55;;;;;;;19.17;9.97;;;;;;;6.01;100.00;101344.16;5043720;28;20051;-71
2020/12/16 07:44:22;;;;;;;23.30;11.00;;;;;;;6.02;100.00;101345.91;5044844;28;20033;-71
2020/12/16 07:46:49;;;;;;;21.53;10.80;;;;;;;6.04;100.00;101345.91;5043145;28;20126;-71
2020/12/16 07:49:16;;;;;;;21.83;11.23;;;;;;;6.04;100.00;101353.78;5027582;28;20086;-71
2020/12/16 07:51:43;;;;;;;20.30;9.53;;;;;;;6.05;100.00;101363.41;5044956;28;20068;-71
2020/12/16 07:54:09;;;;;;;20.63;10.57;;;;;;;6.06;100.00;101373.06;5044909;28;20395;-70
2020/12/16 07:56:36;;;;;;;18.83;9.93;;;;;;;6.06;100.00;101376.56;5045453;28;20777;-70
2020/12/16 07:59:12;;;;;;;16.87;8.90;;;;;;;6.08;100.00;101371.34;5044581;28;20056;-71
2020/12/16 08:01:39;;;;;;;20.03;9.63;;;;;;;6.10;100.00;101365.22;5040324;28;20041;-71
2020/12/16 08:04:05;;;;;;;18.90;9.37;;;;;;;6.12;100.00;101366.09;5040429;28;20041;-71
2020/12/16 08:06:32;;;;;;;21.10;9.57;;;;;;;6.13;100.00;101364.38;5040732;28;20037;-70
2020/12/16 08:08:59;;;;;;;22.10;11.67;;;;;;;6.16;100.00;101370.53;5045046;28;20041;-70
2020/12/16 08:11:27;;;;;;;20.60;9.17;;;;;;;6.19;100.00;101374.91;5046391;28;20037;-71
2020/12/16 08:14:04;;;;;;;20.00;11.03;;;;;;;6.22;100.00;101382.81;5053478;28;20583;-70
2020/12/16 08:16:31;;;;;;;19.50;9.70;;;;;;;6.23;100.00;101381.09;5049794;28;20036;-70
2020/12/16 08:18:57;;;;;;;18.47;9.63;;;;;;;6.25;100.00;101382.84;5045520;28;20116;-70
2020/12/16 08:21:24;;;;;;;18.27;10.07;;;;;;;6.29;100.00;101387.25;5045091;28;20121;-71
2020/12/16 08:23:51;;;;;;;16.35;8.73;;;;;;;6.31;100.00;101385.53;5046251;28;20040;-71
2020/12/16 08:26:19;;;;;;;17.30;9.85;;;;;;;6.35;100.00;101391.69;5044234;28;20064;-70
2020/12/16 08:28:45;;;;;;;20.10;10.10;;;;;;;6.36;100.00;101383.81;5047694;28;20415;-71
2020/12/16 08:31:29;;;;;;;19.40;9.57;;;;;;;6.40;100.00;101396.13;5047693;28;20049;-71
2020/12/16 08:33:56;;;;;;;16.58;8.90;;;;;;;6.44;100.00;101391.75;5042225;28;20053;-71
2020/12/16 08:36:24;;;;;;;15.73;8.80;;;;;;;6.47;100.00;101387.44;5048014;28;20075;-70
2020/12/16 08:38:51;;;;;;;18.33;9.43;;;;;;;6.50;100.00;101397.06;5041438;28;20724;-70
2020/12/16 08:41:28;;;;;;;18.27;9.48;;;;;;;6.55;100.00;101395.34;5048832;28;20041;-70
2020/12/16 08:43:56;;;;;;;16.17;8.30;;;;;;;6.56;100.00;101399.75;5047256;28;20037;-70
2020/12/16 08:46:26;;;;;;;16.17;7.93;;;;;;;6.61;100.00;101402.38;5029397;28;20127;-70
2020/12/16 08:49:02;;;;;;;16.38;9.00;;;;;;;6.65;100.00;101396.31;5048689;28;20327;-70
2020/12/16 08:51:44;;;;;;;14.93;8.20;;;;;;;6.68;100.00;101397.19;5045798;28;20091;-70
2020/12/16 08:54:16;;;;;;;15.23;8.70;;;;;;;6.70;100.00;101400.69;5038941;28;20068;-70
2020/12/16 08:56:50;;;;;;;17.75;9.45;;;;;;;6.74;100.00;101404.25;5044065;28;20040;-70
2020/12/16 08:59:27;;;;;;;12.48;8.48;;;;;;;6.76;100.00;101408.63;5061578;28;20040;-69
2020/12/16 09:01:54;;;;;;;15.82;8.45;;;;;;;6.78;100.00;101412.13;5049181;28;20478;-70
2020/12/16 09:04:32;;;;;;;13.75;7.57;;;;;;;6.84;100.00;101419.19;5040827;28;20061;-69
2020/12/16 09:07:03;;;;;;;14.68;8.38;;;;;;;6.82;100.00;101427.94;5027640;28;20090;-70
2020/12/16 09:09:30;;;;;;;13.30;8.00;;;;;;;6.84;100.00;101427.06;5041889;28;20033;-70
2020/12/16 09:11:56;;;;;;;12.20;7.32;;;;;;;6.89;100.00;101432.34;5050338;28;20044;-70
2020/12/16 09:14:23;;;;;;;12.55;7.68;;;;;;;6.93;100.00;101431.50;5070190;28;20412;-69
2020/12/16 09:16:50;;;;;;;10.43;6.90;;;;;;;6.97;100.00;101425.38;5039814;28;20037;-70
2020/12/16 09:19:24;;;;;;;10.77;7.40;;;;;;;7.01;100.00;101419.31;5037793;28;20465;-71
2020/12/16 09:21:58;;;;;;;9.98;6.90;;;;;;;7.01;100.00;101422.81;5063893;28;20128;-70
2020/12/16 09:24:24;;;;;;;;;;;;;;;6.92;100.00;101435.00;5026075;28;20163;-71
2020/12/16 09:26:51;;;;;;;10.93;6.15;;;;;;;6.94;100.00;101426.25;5048216;28;19956;-70
2020/12/16 09:29:24;;;;;;;8.50;5.68;;;;;;;6.99;100.00;101424.56;5048729;28;20041;-70
2020/12/16 09:31:53;;;;;;;6.45;4.65;;;;;;;7.04;100.00;101428.06;5051448;28;20116;-70
2020/12/16 09:34:19;;;;;;;8.60;6.38;;;;;;;7.09;100.00;101425.50;5051968;28;20059;-70
2020/12/16 09:36:46;;;;;;;7.40;4.85;;;;;;;7.10;100.00;101429.88;5073897;28;20041;-71
2020/12/16 09:39:15;;;;;;;8.18;5.53;;;;;;;7.09;100.00;101436.00;5062767;28;20072;-69
2020/12/16 09:41:43;;;;;;;9.68;5.78;;;;;;;7.10;100.00;101431.63;5061194;28;20049;-69
2020/12/16 09:44:41;;;;;;;10.55;5.82;;;;;;;7.10;100.00;101435.13;5046941;28;20111;-70
2020/12/16 09:47:15;;;;;;;8.07;5.50;;;;;;;7.14;100.00;101428.13;5009825;28;20448;-70
2020/12/16 09:49:42;;;;;;;9.80;5.80;;;;;;;7.18;100.00;101427.28;5045204;28;20080;-71
2020/12/16 09:52:28;;;;;;;9.02;5.80;;;;;;;7.15;100.00;101433.41;5032094;28;20099;-70
2020/12/16 09:54:54;;;;;;;7.68;5.55;;;;;;;7.20;100.00;101430.78;5044799;28;20461;-69
2020/12/16 09:57:21;;;;;;;9.02;5.82;;;;;;;7.25;100.00;101429.09;5044109;28;20060;-69
2020/12/16 09:59:49;;;;;;;9.60;5.60;;;;;;;7.32;100.00;101433.50;5048251;28;20079;-69
2020/12/16 10:02:16;;;;;;;9.00;5.53;;;;;;;7.39;100.00;101430.00;5042323;28;20041;-69
2020/12/16 10:04:43;;;;;;;8.00;4.40;;;;;;;7.46;100.00;101430.94;5040229;28;20432;-68
2020/12/16 10:07:09;;;;;;;6.93;5.10;;;;;;;7.52;100.00;101434.47;5028716;28;20534;-69
2020/12/16 10:09:35;;;;;;;8.40;5.72;;;;;;;7.53;100.00;101437.97;5043073;28;20045;-69
2020/12/16 10:12:03;;;;;;;8.30;5.00;;;;;;;7.57;100.00;101435.38;5053961;28;20037;-69
2020/12/16 10:14:30;;;;;;;8.40;5.68;;;;;;;7.58;100.00;101438.88;5044969;28;20060;-68
2020/12/16 10:17:10;;;;;;;7.40;4.97;;;;;;;7.61;100.00;101436.25;5049594;28;20072;-70
2020/12/16 10:19:36;;;;;;;6.32;4.35;;;;;;;7.63;100.00;101437.13;5049148;28;20036;-70
2020/12/16 10:22:02;;;;;;;5.05;4.03;;;;;;;7.64;100.00;101441.50;5046895;28;20429;-69
2020/12/16 10:24:28;;;;;;;5.93;4.30;;;;;;;7.62;98.89;101445.91;5026920;28;20503;-68
2020/12/16 10:26:54;;;;;;;7.78;5.75;;;;;;;7.61;98.41;101445.03;5042538;28;20041;-70
2020/12/16 10:29:20;;;;;;;8.18;4.90;;;;;;;7.59;97.93;101444.16;5047125;28;20513;-69
2020/12/16 10:31:50;;;;;;;6.93;4.78;;;;;;;7.59;97.12;101440.63;5047958;28;20091;-69
2020/12/16 10:34:17;;;;;;;6.10;4.85;;;;;;;7.61;97.32;101445.03;5047223;28;20540;-69
2020/12/16 10:36:49;;;;;;;8.18;5.57;;;;;;;7.60;96.41;101450.28;5055051;28;20063;-69
2020/12/16 10:39:16;;;;;;;10.18;6.05;;;;;;;7.62;95.60;101448.53;5058936;28;20049;-68
2020/12/16 10:41:43;;;;;;;8.10;5.47;;;;;;;7.62;95.91;101441.50;5047210;28;20509;-69
2020/12/16 10:44:10;;;;;;;9.15;5.93;;;;;;;7.66;95.06;101437.16;5046956;28;20146;-69
2020/12/16 10:46:36;;;;;;;8.10;5.47;;;;;;;7.73;95.41;101440.66;5043948;28;20119;-68
2020/12/16 10:49:02;;;;;;;8.57;5.70;;;;;;;7.80;95.18;101438.06;5047343;28;20076;-68
2020/12/16 10:51:29;;;;;;;8.93;5.65;;;;;;;7.88;94.83;101444.25;5045429;28;20053;-69
2020/12/16 10:53:55;;;;;;;6.90;4.97;;;;;;;7.99;94.16;101438.13;5042733;28;20037;-69
2020/12/16 10:56:21;;;;;;;8.38;5.20;;;;;;;8.04;94.05;101437.28;5046986;28;20461;-69
2020/12/16 10:58:48;;;;;;;6.57;4.32;;;;;;;8.16;94.05;101437.31;5033937;28;20474;-68
2020/12/16 11:01:15;;;;;;;6.03;4.85;;;;;;;8.20;93.56;101443.44;5045764;28;20086;-68
2020/12/16 11:03:41;;;;;;;7.50;5.05;;;;;;;8.21;92.81;101439.94;5046533;28;20057;-69
2020/12/16 11:06:07;;;;;;;8.30;4.72;;;;;;;8.25;93.21;101436.44;5046336;28;20064;-69
2020/12/16 11:08:33;;;;;;;7.53;5.15;;;;;;;8.20;92.26;101435.53;5045255;28;20037;-68
2020/12/16 11:10:59;;;;;;;9.00;6.15;;;;;;;8.18;92.74;101437.31;5043972;28;20037;-69
2020/12/16 11:13:26;;;;;;;7.32;5.15;;;;;;;8.16;92.92;101444.34;5042717;28;20436;-68
2020/12/16 11:15:52;;;;;;;6.20;4.97;;;;;;;8.07;92.64;101442.56;5046741;28;20129;-69
2020/12/16 11:18:18;;;;;;;6.88;4.82;;;;;;;7.97;93.17;101442.50;5042312;28;20094;-68
2020/12/16 11:20:44;;;;;;;8.20;5.68;;;;;;;7.78;93.46;101447.72;5047555;28;20080;-69
2020/12/16 11:23:10;;;;;;;6.07;4.93;;;;;;;7.79;93.97;101446.84;5042543;28;20037;-69